Time;durP1;ratioP1;P1;durP2;ratioP2;P2;SDS_P1;SDS_P2;PMS_P1;PMS_P2;Temp;Humidity;BMP_temperature;BMP_pressure;BME280_temperature;BME280_humidity;BME280_pressure;Samples;Min_cycle;Max_cycle;Signal;HPM_P1;HPM_P2
2023/02/02 05:06:01;;;;;;;3.72;1.42;;;7.10;99.90;;;;;;5118682;22;20226;-71
2023/02/02 05:08:27;;;;;;;2.38;1.58;;;7.20;99.90;;;;;;5013435;28;20541;-73
2023/02/02 05:10:52;;;;;;;0.90;0.90;;;7.20;99.90;;;;;;5013649;28;20181;-72
2023/02/02 05:13:18;;;;;;;1.67;1.57;;;7.20;99.90;;;;;;5012958;28;20170;-71
2023/02/02 05:15:44;;;;;;;1.87;1.17;;;7.20;99.90;;;;;;5013088;28;20217;-72
2023/02/02 05:18:09;;;;;;;3.30;1.70;;;7.20;99.90;;;;;;5013215;28;20171;-72
2023/02/02 05:20:35;;;;;;;2.20;1.37;;;7.20;99.90;;;;;;5013017;28;20227;-72
2023/02/02 05:23:00;;;;;;;2.73;1.33;;;7.20;99.90;;;;;;5013170;28;20212;-72
2023/02/02 05:25:26;;;;;;;2.93;1.30;;;7.20;99.90;;;;;;5011689;28;20657;-72
2023/02/02 05:27:51;;;;;;;1.40;1.30;;;7.20;99.90;;;;;;5012761;28;20170;-72
2023/02/02 05:30:17;;;;;;;1.47;1.37;;;7.20;99.90;;;;;;5013014;28;20167;-72
2023/02/02 05:32:43;;;;;;;3.90;1.53;;;7.20;99.90;;;;;;5013126;28;20170;-71
2023/02/02 05:35:09;;;;;;;1.30;1.20;;;7.20;99.90;;;;;;5012077;28;20539;-70
2023/02/02 05:37:35;;;;;;;2.90;1.63;;;7.20;99.90;;;;;;5012477;28;20170;-70
2023/02/02 05:40:01;;;;;;;1.53;1.43;;;7.20;99.90;;;;;;5014229;28;20176;-71
2023/02/02 05:42:27;;;;;;;1.60;1.50;;;7.20;99.90;;;;;;5016685;28;20193;-71
2023/02/02 05:44:52;;;;;;;2.43;2.03;;;7.20;99.90;;;;;;5015896;28;20171;-71
2023/02/02 05:47:18;;;;;;;9.33;2.13;;;7.20;99.90;;;;;;5015990;28;20544;-71
2023/02/02 05:49:43;;;;;;;1.17;1.10;;;7.20;99.90;;;;;;5016521;28;20181;-71
2023/02/02 05:52:16;;;;;;;1.40;1.30;;;7.30;99.90;;;;;;5016490;28;20177;-71
2023/02/02 05:54:42;;;;;;;2.33;1.60;;;7.30;99.90;;;;;;5016229;28;20167;-71
2023/02/02 05:57:08;;;;;;;1.55;0.93;;;7.30;99.90;;;;;;5016260;28;20210;-71
2023/02/02 05:59:34;;;;;;;1.13;1.00;;;7.30;99.90;;;;;;5016310;28;20654;-71
2023/02/02 06:02:00;;;;;;;1.63;0.97;;;7.30;99.90;;;;;;5016258;28;20309;-71
2023/02/02 06:04:25;;;;;;;2.00;1.33;;;7.30;99.90;;;;;;5015989;28;20524;-71
2023/02/02 06:06:51;;;;;;;7.10;2.10;;;7.30;99.90;;;;;;5027360;28;20471;-70
2023/02/02 06:09:17;;;;;;;3.30;3.00;;;7.20;99.90;;;;;;5035962;28;20170;-71
2023/02/02 06:11:43;;;;;;;1.70;1.60;;;7.30;99.90;;;;;;5030020;28;20175;-71
2023/02/02 06:14:09;;;;;;;1.20;0.98;;;7.30;99.90;;;;;;5015959;28;20175;-70
2023/02/02 06:16:35;;;;;;;1.53;1.43;;;7.20;99.90;;;;;;5016151;28;20208;-70
2023/02/02 06:19:00;;;;;;;1.87;1.23;;;7.20;99.90;;;;;;5016222;28;20177;-71
2023/02/02 06:21:29;;;;;;;2.47;0.93;;;7.20;99.90;;;;;;5015965;28;20412;-70
2023/02/02 06:23:56;;;;;;;3.85;1.17;;;7.30;99.90;;;;;;5020614;28;20180;-70
2023/02/02 06:26:21;;;;;;;5.90;1.42;;;7.30;99.90;;;;;;5035669;28;20189;-68
2023/02/02 06:28:49;;;;;;;4.50;1.50;;;7.30;99.90;;;;;;5034933;28;20264;-67
2023/02/02 06:31:18;;;;;;;3.15;1.42;;;7.30;99.90;;;;;;5035435;28;20644;-70
2023/02/02 06:33:47;;;;;;;3.17;0.93;;;7.30;99.90;;;;;;5033915;28;20177;-70
2023/02/02 06:36:13;;;;;;;1.50;1.17;;;7.30;99.90;;;;;;5022918;28;20284;-71
2023/02/02 06:38:39;;;;;;;4.37;1.60;;;7.30;99.90;;;;;;5014544;28;20267;-66
2023/02/02 06:41:05;;;;;;;1.47;1.37;;;7.30;99.90;;;;;;5025821;28;20792;-70
2023/02/02 06:43:31;;;;;;;1.58;1.05;;;7.30;99.90;;;;;;5034864;28;20463;-71
2023/02/02 06:45:57;;;;;;;2.40;1.33;;;7.30;99.90;;;;;;5035174;28;20655;-70
2023/02/02 06:48:23;;;;;;;1.40;1.20;;;7.40;99.90;;;;;;5035294;28;20700;-70
2023/02/02 06:50:49;;;;;;;2.15;1.83;;;7.30;99.90;;;;;;5034740;28;20404;-70
2023/02/02 06:53:20;;;;;;;3.00;1.70;;;7.40;99.90;;;;;;5033353;28;20181;-70
2023/02/02 06:55:55;;;;;;;4.85;1.45;;;7.40;99.90;;;;;;5027796;28;20206;-73
2023/02/02 06:58:21;;;;;;;1.10;1.08;;;7.40;99.90;;;;;;5015360;28;20169;-72
2023/02/02 07:00:47;;;;;;;1.83;1.55;;;7.40;99.90;;;;;;5014646;28;20233;-71
2023/02/02 07:03:13;;;;;;;1.27;1.17;;;7.40;99.90;;;;;;5020473;28;20217;-72
2023/02/02 07:05:39;;;;;;;1.55;1.45;;;7.40;99.90;;;;;;5033099;28;20191;-70
2023/02/02 07:08:04;;;;;;;1.90;1.33;;;7.40;99.90;;;;;;5021739;28;20184;-73
2023/02/02 07:10:30;;;;;;;7.20;1.80;;;7.40;99.90;;;;;;5020975;28;20178;-72
2023/02/02 07:12:57;;;;;;;2.40;1.42;;;7.40;99.90;;;;;;5014491;28;20210;-73
2023/02/02 07:15:23;;;;;;;2.90;1.17;;;7.30;99.90;;;;;;5013201;28;20245;-70
2023/02/02 07:17:48;;;;;;;4.60;1.60;;;7.40;99.90;;;;;;5014922;28;20644;-72
2023/02/02 07:20:14;;;;;;;2.47;1.10;;;7.40;99.90;;;;;;5014885;28;20180;-73
2023/02/02 07:22:40;;;;;;;1.50;1.40;;;7.40;99.90;;;;;;5014654;28;20225;-72
2023/02/02 07:25:07;;;;;;;1.13;1.13;;;7.40;99.90;;;;;;5013204;28;20178;-72
2023/02/02 07:27:33;;;;;;;1.52;1.27;;;7.40;99.90;;;;;;5014495;28;20415;-71
2023/02/02 07:29:58;;;;;;;1.73;1.23;;;7.40;99.90;;;;;;5014726;28;20166;-72
2023/02/02 07:32:24;;;;;;;2.93;2.13;;;7.40;99.90;;;;;;5014745;28;20430;-71
2023/02/02 07:34:50;;;;;;;1.57;1.27;;;7.40;99.90;;;;;;5013109;28;20629;-71
2023/02/02 07:37:15;;;;;;;1.33;1.10;;;7.40;99.90;;;;;;5014502;28;20180;-72
2023/02/02 07:39:42;;;;;;;1.00;1.00;;;7.40;99.90;;;;;;5014655;28;20170;-72
2023/02/02 07:42:11;;;;;;;1.20;1.10;;;7.50;99.90;;;;;;5014444;28;20198;-72
2023/02/02 07:44:37;;;;;;;1.73;1.17;;;7.50;99.90;;;;;;5014107;28;20159;-72
2023/02/02 07:47:02;;;;;;;3.77;0.97;;;7.50;99.90;;;;;;5014210;28;20671;-71
2023/02/02 07:49:28;;;;;;;1.67;1.10;;;7.50;99.90;;;;;;5014637;28;20414;-72
2023/02/02 07:51:53;;;;;;;1.70;0.80;;;7.50;99.90;;;;;;5014448;28;20590;-72
2023/02/02 07:54:19;;;;;;;2.73;1.50;;;7.50;99.90;;;;;;5014012;28;20263;-73
2023/02/02 07:56:45;;;;;;;3.17;1.03;;;7.50;99.90;;;;;;5012924;28;20222;-71
2023/02/02 07:59:11;;;;;;;3.40;1.10;;;7.50;99.90;;;;;;5014541;28;20410;-72
2023/02/02 08:01:36;;;;;;;0.90;0.90;;;7.60;99.90;;;;;;5014105;28;20175;-72
2023/02/02 08:04:02;;;;;;;1.63;1.10;;;7.60;99.90;;;;;;5013186;28;20171;-72
2023/02/02 08:06:31;;;;;;;2.90;1.73;;;7.60;99.90;;;;;;5013980;28;20704;-73
2023/02/02 08:08:58;;;;;;;2.95;1.00;;;7.60;99.90;;;;;;5014028;28;20574;-72
2023/02/02 08:11:24;;;;;;;1.23;1.20;;;7.70;99.90;;;;;;5014182;28;20652;-70
2023/02/02 08:13:52;;;;;;;0.70;0.70;;;7.70;99.90;;;;;;5013812;28;20171;-72
2023/02/02 08:16:19;;;;;;;0.93;0.90;;;7.70;99.90;;;;;;5012531;28;20281;-72
2023/02/02 08:18:45;;;;;;;1.10;0.70;;;7.80;99.90;;;;;;5014040;28;20648;-72
2023/02/02 08:21:11;;;;;;;0.80;0.80;;;7.80;99.90;;;;;;5013745;28;20171;-72
2023/02/02 08:23:38;;;;;;;0.70;0.70;;;7.80;99.90;;;;;;5013229;28;20489;-72
2023/02/02 08:26:17;;;;;;;1.13;1.02;;;7.80;99.90;;;;;;5012473;28;20241;-72
2023/02/02 08:28:44;;;;;;;1.10;1.05;;;7.80;99.90;;;;;;5013857;28;20167;-73
2023/02/02 08:31:14;;;;;;;0.93;0.90;;;7.80;99.90;;;;;;5013571;28;20167;-72
2023/02/02 08:33:39;;;;;;;2.65;1.50;;;7.90;99.90;;;;;;5013544;28;20167;-71
2023/02/02 08:36:18;;;;;;;2.53;1.30;;;7.90;99.90;;;;;;5012275;28;20722;-71
2023/02/02 08:38:44;;;;;;;1.00;1.00;;;8.00;99.90;;;;;;5013810;28;20182;-70
2023/02/02 08:41:12;;;;;;;2.03;1.58;;;8.00;99.90;;;;;;5013780;28;20224;-70
2023/02/02 08:43:38;;;;;;;1.15;1.15;;;8.00;99.90;;;;;;5013351;28;20565;-72
2023/02/02 08:46:05;;;;;;;3.85;1.30;;;8.00;99.90;;;;;;5013522;28;20269;-72
2023/02/02 08:48:31;;;;;;;6.07;1.30;;;8.00;99.90;;;;;;5013908;28;20166;-73
2023/02/02 08:50:58;;;;;;;1.80;1.00;;;8.00;99.90;;;;;;5013952;28;20281;-72
2023/02/02 08:53:24;;;;;;;2.85;1.73;;;8.00;99.90;;;;;;5012191;28;20178;-72
2023/02/02 08:56:00;;;;;;;1.50;1.00;;;8.00;99.90;;;;;;5013493;28;20529;-71
2023/02/02 08:58:27;;;;;;;1.80;1.05;;;8.00;99.90;;;;;;5013765;28;20174;-72
2023/02/02 09:00:53;;;;;;;1.73;1.25;;;7.90;99.90;;;;;;5012186;28;20174;-72
2023/02/02 09:03:18;;;;;;;0.85;0.85;;;7.90;99.90;;;;;;5011804;28;20203;-72
2023/02/02 09:05:44;;;;;;;7.63;1.10;;;7.90;99.90;;;;;;5013100;28;20197;-72
2023/02/02 09:08:10;;;;;;;1.80;1.13;;;7.90;99.90;;;;;;5013395;28;20190;-72
2023/02/02 09:10:36;;;;;;;0.93;0.93;;;7.90;99.90;;;;;;5013298;28;20193;-73
2023/02/02 09:13:02;;;;;;;1.38;0.75;;;7.90;99.90;;;;;;5012849;28;20174;-74
2023/02/02 09:15:29;;;;;;;1.45;1.20;;;8.00;99.90;;;;;;5016577;28;20648;-72
2023/02/02 09:17:54;;;;;;;3.63;0.98;;;8.00;99.90;;;;;;5017209;28;20179;-73
2023/02/02 09:20:20;;;;;;;1.23;1.13;;;8.00;99.90;;;;;;5015963;28;20273;-71
2023/02/02 09:22:47;;;;;;;1.50;1.40;;;8.00;99.90;;;;;;5017078;28;20528;-71
2023/02/02 09:25:13;;;;;;;5.47;1.60;;;8.00;99.90;;;;;;5016772;28;20193;-71
2023/02/02 09:27:39;;;;;;;5.10;1.27;;;8.00;99.90;;;;;;5017215;28;20529;-72
2023/02/02 09:30:06;;;;;;;3.63;1.48;;;8.00;99.90;;;;;;5016870;28;20396;-72
2023/02/02 09:32:32;;;;;;;4.82;1.40;;;8.00;99.90;;;;;;5016851;28;20343;-73
2023/02/02 09:34:59;;;;;;;1.95;1.38;;;8.00;99.90;;;;;;5016395;28;20197;-71
2023/02/02 09:37:25;;;;;;;2.38;2.13;;;8.00;99.90;;;;;;5016853;28;20171;-71
2023/02/02 09:39:51;;;;;;;1.33;1.23;;;8.00;99.90;;;;;;5016727;28;20174;-72
2023/02/02 09:42:33;;;;;;;1.37;1.20;;;8.10;99.90;;;;;;5016665;28;20201;-71
2023/02/02 09:45:06;;;;;;;0.80;0.80;;;8.20;99.90;;;;;;5016405;28;20182;-71
2023/02/02 09:47:50;;;;;;;4.22;2.53;;;8.20;99.90;;;;;;5016567;28;20167;-71
2023/02/02 09:50:52;;;;;;;2.83;1.90;;;8.20;99.90;;;;;;5016698;28;20173;-74
2023/02/02 09:53:38;;;;;;;4.55;2.10;;;8.20;99.90;;;;;;5015090;28;20198;-73
2023/02/02 09:56:09;;;;;;;5.82;2.30;;;8.20;99.90;;;;;;5016243;28;20189;-73
2023/02/02 09:58:50;;;;;;;6.10;1.92;;;8.10;99.90;;;;;;5016673;28;20527;-73
2023/02/02 10:01:21;;;;;;;1.80;1.70;;;8.10;99.90;;;;;;5016232;28;20170;-73
2023/02/02 10:04:00;;;;;;;1.92;1.48;;;8.10;99.90;;;;;;5015952;28;20199;-71
2023/02/02 10:06:39;;;;;;;1.85;1.20;;;8.10;99.90;;;;;;5014706;28;20209;-72
2023/02/02 10:09:39;;;;;;;2.95;1.77;;;8.00;99.90;;;;;;5016393;28;20246;-72
2023/02/02 10:12:23;;;;;;;3.05;2.90;;;8.10;99.90;;;;;;5014486;28;20177;-72
2023/02/02 10:15:16;;;;;;;3.13;1.13;;;8.10;99.90;;;;;;5015820;28;20177;-73
2023/02/02 10:17:54;;;;;;;1.92;1.55;;;8.10;99.90;;;;;;5015879;28;20166;-73
2023/02/02 10:20:45;;;;;;;3.42;2.35;;;8.10;99.90;;;;;;5016206;28;20175;-72
2023/02/02 10:23:31;;;;;;;1.60;1.50;;;8.00;99.90;;;;;;5015298;28;20244;-72
2023/02/02 10:26:03;;;;;;;1.73;1.20;;;8.00;99.90;;;;;;5015065;28;20222;-73
2023/02/02 10:28:42;;;;;;;4.88;2.08;;;8.10;99.90;;;;;;5015855;28;20208;-73
2023/02/02 10:31:26;;;;;;;1.77;1.65;;;8.10;99.90;;;;;;5015984;28;20189;-73
2023/02/02 10:34:12;;;;;;;2.63;1.83;;;8.10;99.90;;;;;;5015645;28;20207;-72
2023/02/02 10:36:57;;;;;;;2.45;1.33;;;8.20;99.90;;;;;;5015692;28;20260;-72
2023/02/02 10:39:32;;;;;;;1.17;1.10;;;8.20;99.90;;;;;;5014686;28;20205;-73
2023/02/02 10:42:24;;;;;;;3.13;1.80;;;8.10;99.90;;;;;;5015623;28;20197;-72
2023/02/02 10:44:57;;;;;;;2.25;1.95;;;8.10;99.90;;;;;;5015253;28;20170;-72
2023/02/02 10:47:28;;;;;;;2.33;2.13;;;8.10;99.90;;;;;;5015976;28;20210;-72
2023/02/02 10:50:11;;;;;;;1.80;1.20;;;8.10;99.90;;;;;;5015617;28;20171;-72
2023/02/02 10:52:39;;;;;;;2.58;1.42;;;8.10;99.90;;;;;;5015644;28;20182;-72
2023/02/02 10:55:24;;;;;;;4.13;1.85;;;8.10;99.90;;;;;;5015246;28;20533;-72
2023/02/02 10:57:58;;;;;;;4.63;1.95;;;8.10;99.90;;;;;;5015545;28;20288;-72
2023/02/02 11:00:56;;;;;;;1.98;1.88;;;8.10;99.90;;;;;;5017038;28;20200;-72
2023/02/02 11:03:36;;;;;;;7.70;1.20;;;8.00;99.90;;;;;;5017164;28;20249;-72
2023/02/02 11:08:56;;;;;;;2.85;1.92;;;8.10;99.90;;;;;;5015214;28;20201;-72
2023/02/02 11:11:38;;;;;;;1.48;1.38;;;8.10;99.90;;;;;;5015215;28;20524;-72
2023/02/02 11:14:07;;;;;;;1.10;1.10;;;8.10;99.90;;;;;;5013855;28;20171;-71
2023/02/02 11:16:38;;;;;;;4.18;2.03;;;8.20;99.90;;;;;;5015698;28;20253;-73
2023/02/02 11:19:18;;;;;;;1.95;1.48;;;8.20;99.90;;;;;;5014912;28;20167;-73
2023/02/02 11:21:47;;;;;;;2.40;1.40;;;8.20;99.90;;;;;;5014877;28;20169;-72
2023/02/02 11:24:35;;;;;;;5.07;1.40;;;8.20;99.90;;;;;;5013092;28;20604;-73
2023/02/02 11:27:13;;;;;;;4.35;1.45;;;8.20;99.90;;;;;;5014565;28;20187;-71
2023/02/02 11:29:39;;;;;;;1.17;1.08;;;8.20;99.90;;;;;;5014843;28;20173;-73
2023/02/02 11:32:22;;;;;;;2.03;1.10;;;8.10;99.90;;;;;;5014575;28;20167;-73
2023/02/02 11:35:03;;;;;;;1.60;1.08;;;8.10;99.90;;;;;;5014182;28;20181;-72
2023/02/02 11:37:37;;;;;;;1.45;1.35;;;8.20;99.90;;;;;;5013041;28;20260;-72
2023/02/02 11:40:27;;;;;;;3.90;1.00;;;8.20;99.90;;;;;;5014710;28;20620;-72
2023/02/02 11:43:02;;;;;;;0.80;0.80;;;8.30;99.90;;;;;;5014461;28;20193;-73
2023/02/02 11:45:40;;;;;;;2.78;1.27;;;8.30;99.90;;;;;;5014743;28;20200;-73
2023/02/02 11:48:17;;;;;;;3.95;1.20;;;8.20;99.90;;;;;;5013058;28;20564;-72
2023/02/02 11:50:52;;;;;;;1.17;1.10;;;8.30;99.90;;;;;;5013174;28;20227;-72
2023/02/02 11:53:43;;;;;;;6.13;1.33;;;8.30;99.90;;;;;;5014212;28;20175;-73
2023/02/02 11:56:24;;;;;;;1.17;1.10;;;8.30;99.90;;;;;;5013310;28;20271;-72
2023/02/02 11:58:55;;;;;;;1.48;1.27;;;8.30;99.90;;;;;;5014224;28;20182;-72
2023/02/02 12:01:29;;;;;;;1.15;1.05;;;8.30;99.90;;;;;;5014186;28;20188;-73
2023/02/02 12:03:57;;;;;;;1.10;0.95;;;8.30;99.90;;;;;;5013743;28;20220;-72
2023/02/02 12:06:32;;;;;;;1.13;1.13;;;8.30;99.90;;;;;;5013830;28;20212;-73
2023/02/02 12:09:00;;;;;;;1.40;1.15;;;8.30;99.90;;;;;;5012639;28;20660;-72
2023/02/02 12:11:50;;;;;;;2.15;1.05;;;8.30;99.90;;;;;;5013876;28;20186;-72
2023/02/02 12:14:53;;;;;;;0.93;0.93;;;8.30;99.90;;;;;;5012308;28;20534;-72
2023/02/02 12:17:29;;;;;;;1.55;0.98;;;8.30;99.90;;;;;;5013899;28;20167;-73
2023/02/02 12:20:32;;;;;;;2.17;1.08;;;8.20;99.90;;;;;;5012818;28;20170;-73
2023/02/02 12:23:07;;;;;;;1.95;1.10;;;8.10;99.90;;;;;;5013377;28;20200;-73
2023/02/02 12:25:32;;;;;;;1.95;1.08;;;8.10;99.90;;;;;;5013772;28;20189;-72
2023/02/02 12:28:05;;;;;;;1.47;1.00;;;8.10;99.90;;;;;;5012448;28;20183;-72
2023/02/02 12:30:50;;;;;;;1.00;1.00;;;8.10;99.90;;;;;;5013965;28;20162;-71
2023/02/02 12:33:37;;;;;;;0.82;0.82;;;8.00;99.90;;;;;;5008090;28;20190;-73
2023/02/02 12:36:06;;;;;;;1.90;1.80;;;8.00;99.90;;;;;;5012285;28;20194;-72
2023/02/02 12:39:09;;;;;;;3.42;1.17;;;7.90;99.90;;;;;;5013902;28;20171;-72
2023/02/02 12:41:47;;;;;;;2.47;1.58;;;7.90;99.90;;;;;;5013615;28;20279;-72
2023/02/02 12:44:43;;;;;;;2.58;1.05;;;7.80;99.90;;;;;;5013238;28;20169;-73
2023/02/02 12:47:24;;;;;;;2.05;1.10;;;7.70;99.90;;;;;;5013621;28;20587;-72
2023/02/02 12:50:02;;;;;;;2.05;1.70;;;7.70;99.90;;;;;;5018851;28;20173;-73
2023/02/02 12:52:53;;;;;;;1.30;1.27;;;7.70;99.90;;;;;;5020124;28;20196;-73
2023/02/02 12:55:33;;;;;;;1.23;1.10;;;7.70;99.90;;;;;;5019720;28;20198;-71
2023/02/02 12:58:14;;;;;;;1.35;1.20;;;7.70;99.90;;;;;;5020186;28;20173;-73
2023/02/02 13:01:17;;;;;;;1.20;1.10;;;7.70;99.90;;;;;;5020375;28;20170;-71
2023/02/02 13:03:48;;;;;;;1.50;1.40;;;7.60;99.90;;;;;;5020200;28;20293;-74
2023/02/02 13:06:20;;;;;;;1.58;1.52;;;7.60;99.90;;;;;;5027255;28;20282;-71
2023/02/02 13:09:00;;;;;;;4.80;1.52;;;7.60;99.90;;;;;;5031136;28;20659;-72
2023/02/02 13:11:52;;;;;;;3.35;1.10;;;7.60;99.90;;;;;;5018592;28;20170;-71
2023/02/02 13:15:06;;;;;;;2.97;1.63;;;7.60;99.90;;;;;;5018221;28;20170;-73
2023/02/02 13:17:42;;;;;;;3.58;1.20;;;7.60;99.90;;;;;;5001073;28;20266;-72
2023/02/02 13:20:17;;;;;;;2.00;1.33;;;7.60;99.90;;;;;;5019448;28;20185;-66
2023/02/02 13:22:46;;;;;;;1.25;1.15;;;7.50;99.90;;;;;;5039627;28;20243;-71
2023/02/02 13:25:27;;;;;;;1.33;1.20;;;7.60;99.90;;;;;;5019401;28;20201;-72
2023/02/02 13:27:54;;;;;;;2.65;1.75;;;7.50;99.90;;;;;;5018970;28;20640;-72
2023/02/02 13:30:30;;;;;;;3.90;1.55;;;7.50;99.90;;;;;;5032417;28;20177;-73
2023/02/02 13:33:10;;;;;;;1.10;1.10;;;7.50;99.90;;;;;;5039746;28;20166;-73
2023/02/02 13:35:50;;;;;;;1.40;1.30;;;7.50;99.90;;;;;;5000278;28;20205;-74
2023/02/02 13:38:23;;;;;;;1.45;1.35;;;7.50;99.90;;;;;;5003329;28;20198;-74
2023/02/02 13:40:53;;;;;;;1.30;1.20;;;7.60;99.90;;;;;;5022992;28;20185;-72
2023/02/02 13:43:28;;;;;;;1.38;1.27;;;7.60;99.90;;;;;;5022545;28;20202;-71
2023/02/02 13:46:05;;;;;;;2.45;1.42;;;7.60;99.90;;;;;;5022263;28;20193;-75
2023/02/02 13:48:52;;;;;;;2.75;1.33;;;7.70;99.90;;;;;;5037641;28;20174;-66
2023/02/02 13:51:41;;;;;;;2.45;1.30;;;7.70;99.90;;;;;;5044271;28;20169;-73
2023/02/02 13:54:38;;;;;;;4.75;1.50;;;7.70;99.90;;;;;;5024041;28;20174;-71
2023/02/02 13:57:40;;;;;;;5.75;1.90;;;7.80;99.90;;;;;;5019231;28;20538;-72
2023/02/02 14:00:28;;;;;;;2.13;1.50;;;7.80;99.90;;;;;;5018316;28;20177;-72
2023/02/02 14:03:04;;;;;;;1.60;1.50;;;7.80;99.90;;;;;;5017914;28;20251;-73
2023/02/02 14:05:33;;;;;;;1.70;1.30;;;7.80;99.90;;;;;;5026687;28;20273;-72
2023/02/02 14:08:20;;;;;;;1.23;1.13;;;7.80;99.90;;;;;;5036694;28;20240;-73
2023/02/02 14:10:52;;;;;;;2.50;1.88;;;7.80;99.90;;;;;;5016501;28;20175;-71
2023/02/02 14:16:40;;;;;;;2.28;1.52;;;7.80;99.90;;;;;;5037829;28;20239;-72
2023/02/02 14:19:33;;;;;;;3.20;1.45;;;7.80;99.90;;;;;;5020618;28;20171;-74
2023/02/02 14:22:08;;;;;;;1.77;1.70;;;7.80;99.90;;;;;;5015419;28;20577;-74
2023/02/02 14:24:34;;;;;;;1.48;1.38;;;7.80;99.90;;;;;;5027992;28;20173;-74
2023/02/02 14:27:28;;;;;;;1.80;1.50;;;7.80;99.90;;;;;;5016137;28;20576;-72
2023/02/02 14:29:54;;;;;;;2.03;1.58;;;7.90;99.90;;;;;;4998052;28;20184;-73
2023/02/02 14:32:28;;;;;;;1.73;1.40;;;7.90;99.90;;;;;;4996513;28;20302;-74
2023/02/02 14:35:08;;;;;;;7.40;1.77;;;8.00;99.90;;;;;;4996225;28;20240;-72
2023/02/02 14:37:52;;;;;;;4.50;1.30;;;7.90;99.90;;;;;;4999122;28;20230;-75
2023/02/02 14:40:46;;;;;;;3.13;1.85;;;8.00;99.90;;;;;;5034132;28;20536;-73
2023/02/02 14:43:48;;;;;;;2.90;1.75;;;8.00;99.90;;;;;;5029045;28;20256;-73
2023/02/02 14:46:14;;;;;;;2.20;1.27;;;8.00;99.90;;;;;;5015502;28;20221;-73
2023/02/02 14:48:47;;;;;;;2.37;1.33;;;8.00;99.90;;;;;;5032691;28;20178;-74
2023/02/02 14:51:17;;;;;;;2.15;1.15;;;8.00;99.90;;;;;;5035076;28;20226;-74
2023/02/02 14:53:49;;;;;;;1.15;1.15;;;8.00;99.90;;;;;;5015797;28;20167;-73
2023/02/02 14:56:16;;;;;;;1.33;1.27;;;8.00;99.90;;;;;;5015501;28;20199;-73
2023/02/02 14:58:52;;;;;;;5.30;1.88;;;8.00;99.90;;;;;;5033212;28;20185;-73
2023/02/02 15:01:23;;;;;;;2.70;1.58;;;8.00;99.90;;;;;;5035275;28;20674;-73
2023/02/02 15:03:49;;;;;;;6.57;2.28;;;8.00;99.90;;;;;;5015939;28;20202;-73
2023/02/02 15:06:39;;;;;;;5.27;1.10;;;8.00;99.90;;;;;;5015168;28;20220;-72
2023/02/02 15:09:22;;;;;;;2.15;1.55;;;8.00;99.90;;;;;;5034333;28;20599;-72
2023/02/02 15:12:33;;;;;;;5.82;1.23;;;8.00;99.90;;;;;;5032391;28;20173;-73
2023/02/02 15:15:14;;;;;;;2.92;1.13;;;8.00;99.90;;;;;;5031317;28;20614;-73
2023/02/02 15:17:39;;;;;;;1.05;1.05;;;8.10;99.90;;;;;;5027991;28;20182;-73
2023/02/02 15:20:13;;;;;;;6.03;1.33;;;8.10;99.90;;;;;;5001325;28;20226;-73
2023/02/02 15:23:05;;;;;;;5.07;1.35;;;8.10;99.90;;;;;;5004124;28;20244;-73
2023/02/02 15:25:36;;;;;;;1.80;1.30;;;8.20;99.90;;;;;;5034545;28;20203;-74
2023/02/02 15:28:32;;;;;;;3.17;1.05;;;8.20;99.90;;;;;;5024011;28;20556;-73
2023/02/02 15:31:11;;;;;;;2.45;1.50;;;8.20;99.90;;;;;;5013520;28;20510;-73
2023/02/02 15:33:52;;;;;;;0.90;0.90;;;8.20;99.90;;;;;;5026992;28;20635;-74
2023/02/02 15:36:27;;;;;;;0.60;0.60;;;8.20;99.90;;;;;;5034113;28;20190;-75
2023/02/02 15:38:57;;;;;;;1.13;0.95;;;8.20;99.90;;;;;;5018536;28;20651;-74
2023/02/02 15:41:31;;;;;;;1.25;1.25;;;8.20;99.90;;;;;;5017361;28;20190;-73
2023/02/02 15:43:58;;;;;;;2.70;1.65;;;8.20;99.90;;;;;;5033969;28;20233;-74
2023/02/02 15:46:28;;;;;;;2.50;1.10;;;8.20;99.90;;;;;;5030139;28;20601;-73
2023/02/02 15:49:13;;;;;;;5.47;1.98;;;8.10;99.90;;;;;;5014466;28;20564;-74
2023/02/02 15:51:43;;;;;;;2.35;1.42;;;8.10;99.90;;;;;;5017803;28;20213;-72
2023/02/02 15:54:30;;;;;;;1.38;1.25;;;8.10;99.90;;;;;;5033938;28;20196;-74
2023/02/02 15:56:59;;;;;;;1.25;1.15;;;8.10;99.90;;;;;;5028183;28;20264;-74
2023/02/02 15:59:36;;;;;;;1.88;1.30;;;8.00;99.90;;;;;;4996602;28;20178;-73
2023/02/02 16:02:05;;;;;;;4.30;1.23;;;8.00;99.90;;;;;;5019576;28;20209;-74
2023/02/02 16:04:37;;;;;;;1.13;1.02;;;8.00;99.90;;;;;;5033439;28;20174;-74
2023/02/02 16:07:05;;;;;;;1.13;1.10;;;8.00;99.90;;;;;;5028365;28;20211;-74
2023/02/02 16:09:33;;;;;;;1.40;1.30;;;8.00;99.90;;;;;;5013651;28;20170;-73
2023/02/02 16:12:00;;;;;;;1.85;1.25;;;8.00;99.90;;;;;;5016273;28;20166;-74
2023/02/02 16:14:27;;;;;;;1.15;1.15;;;8.00;99.90;;;;;;5033335;28;20296;-71
2023/02/02 16:16:52;;;;;;;1.60;1.13;;;7.90;99.90;;;;;;5028666;28;20209;-71
2023/02/02 16:19:19;;;;;;;0.70;0.70;;;7.90;99.90;;;;;;5013426;28;20179;-71
2023/02/02 16:21:54;;;;;;;1.77;1.67;;;8.00;99.90;;;;;;5015121;28;20198;-70
2023/02/02 16:24:27;;;;;;;1.92;1.63;;;7.90;99.90;;;;;;5032401;28;20711;-72
2023/02/02 16:26:56;;;;;;;6.32;1.10;;;7.90;99.90;;;;;;5031055;28;20196;-73
2023/02/02 16:29:23;;;;;;;1.13;1.05;;;7.90;99.90;;;;;;5028038;28;20184;-74
2023/02/02 16:31:49;;;;;;;0.90;0.90;;;7.90;99.90;;;;;;5031228;28;20260;-74
2023/02/02 16:34:38;;;;;;;0.93;0.88;;;7.90;99.90;;;;;;5013377;28;20163;-75
2023/02/02 16:37:15;;;;;;;4.63;1.30;;;7.90;99.90;;;;;;5015197;28;20559;-74
2023/02/02 16:39:41;;;;;;;1.20;0.88;;;7.90;99.90;;;;;;5033446;28;20161;-74
2023/02/02 16:42:21;;;;;;;0.88;0.88;;;7.90;99.90;;;;;;5030211;28;20597;-73
2023/02/02 16:44:47;;;;;;;4.40;1.10;;;7.90;99.90;;;;;;5013176;28;20574;-73
2023/02/02 16:47:30;;;;;;;1.27;1.17;;;7.90;99.90;;;;;;5026862;28;20190;-74
2023/02/02 16:50:08;;;;;;;3.33;0.98;;;7.90;99.90;;;;;;5033192;28;20166;-74
2023/02/02 16:52:47;;;;;;;1.48;1.15;;;7.90;99.90;;;;;;5016943;28;20178;-73
2023/02/02 16:55:16;;;;;;;1.33;1.23;;;7.90;99.90;;;;;;5012182;28;20194;-74
2023/02/02 16:57:44;;;;;;;1.15;0.88;;;7.90;99.90;;;;;;5031041;28;20181;-75
2023/02/02 17:00:19;;;;;;;3.17;1.10;;;7.90;99.90;;;;;;5033185;28;20174;-72
2023/02/02 17:02:47;;;;;;;1.00;0.90;;;7.90;99.90;;;;;;5015296;28;20227;-72
2023/02/02 17:05:24;;;;;;;0.85;0.85;;;8.00;99.90;;;;;;5012982;28;20186;-73
2023/02/02 17:08:04;;;;;;;1.27;1.17;;;8.00;99.90;;;;;;5025009;28;20348;-74
2023/02/02 17:10:37;;;;;;;0.80;0.80;;;8.00;99.90;;;;;;5032805;28;20227;-72
2023/02/02 17:13:29;;;;;;;1.38;1.05;;;8.00;99.90;;;;;;5016080;28;20265;-74
2023/02/02 17:15:55;;;;;;;0.70;0.68;;;8.00;99.90;;;;;;5014034;28;20201;-74
2023/02/02 17:18:20;;;;;;;0.80;0.80;;;8.00;99.90;;;;;;4993164;28;20183;-75
2023/02/02 17:20:52;;;;;;;1.93;0.73;;;8.00;99.90;;;;;;5012948;28;20218;-72
2023/02/02 17:23:18;;;;;;;0.68;0.68;;;8.00;99.90;;;;;;5013805;28;20214;-69
2023/02/02 17:25:46;;;;;;;2.80;1.63;;;8.00;99.90;;;;;;5013017;28;20540;-70
2023/02/02 17:28:15;;;;;;;0.70;0.70;;;7.90;99.90;;;;;;5031907;28;20435;-71
2023/02/02 17:30:46;;;;;;;1.10;1.10;;;7.90;99.90;;;;;;5025744;28;20210;-74
2023/02/02 17:33:15;;;;;;;1.15;0.82;;;7.90;99.90;;;;;;5012755;28;20163;-70
2023/02/02 17:35:42;;;;;;;0.98;0.80;;;7.90;99.90;;;;;;5021265;28;20205;-71
2023/02/02 17:38:07;;;;;;;1.05;1.02;;;7.80;99.90;;;;;;5036713;28;20169;-75
2023/02/02 17:40:33;;;;;;;0.83;0.73;;;7.80;99.90;;;;;;5034337;28;20189;-72
2023/02/02 17:43:01;;;;;;;1.05;0.90;;;7.90;99.90;;;;;;5024765;28;20224;-70
2023/02/02 17:45:32;;;;;;;1.10;0.93;;;7.80;99.90;;;;;;5026846;28;20194;-67
2023/02/02 17:47:59;;;;;;;1.30;1.20;;;7.80;99.90;;;;;;5024371;28;20254;-72
2023/02/02 17:50:24;;;;;;;0.80;0.80;;;7.80;99.90;;;;;;5026927;28;20201;-72
2023/02/02 17:52:50;;;;;;;2.03;1.00;;;7.80;99.90;;;;;;5035500;28;20626;-71
2023/02/02 17:55:37;;;;;;;0.73;0.73;;;7.80;99.90;;;;;;5035664;28;20439;-76
2023/02/02 17:58:02;;;;;;;1.77;1.42;;;7.80;99.90;;;;;;5016567;28;20198;-72
2023/02/02 18:00:28;;;;;;;1.67;1.00;;;7.70;99.90;;;;;;5017036;28;20213;-72
2023/02/02 18:02:59;;;;;;;1.10;1.00;;;7.70;99.90;;;;;;5035599;28;20466;-75
2023/02/02 18:05:25;;;;;;;0.60;0.60;;;7.70;99.90;;;;;;5034638;28;20186;-74
2023/02/02 18:07:50;;;;;;;0.80;0.80;;;7.60;99.90;;;;;;5015799;28;20667;-75
2023/02/02 18:10:18;;;;;;;1.70;1.50;;;7.60;99.90;;;;;;5016102;28;20232;-71
2023/02/02 18:12:44;;;;;;;2.15;1.05;;;7.60;99.90;;;;;;5033753;28;20189;-73
2023/02/02 18:15:12;;;;;;;1.73;1.63;;;7.60;99.90;;;;;;5035328;28;20218;-71
2023/02/02 18:17:38;;;;;;;1.48;1.20;;;7.60;99.90;;;;;;5017679;28;20422;-74
2023/02/02 18:20:04;;;;;;;0.87;0.87;;;7.60;99.90;;;;;;5014871;28;20710;-74
2023/02/02 18:22:30;;;;;;;2.58;1.40;;;7.60;99.90;;;;;;5014280;28;20461;-73
2023/02/02 18:24:57;;;;;;;1.25;0.98;;;7.50;99.90;;;;;;5015571;28;20241;-72
2023/02/02 18:27:23;;;;;;;1.20;1.10;;;7.60;99.90;;;;;;5015970;28;20181;-71
2023/02/02 18:29:49;;;;;;;2.13;1.10;;;7.60;99.90;;;;;;5015707;28;20174;-71
2023/02/02 18:32:16;;;;;;;3.30;1.40;;;7.60;99.90;;;;;;5031308;28;20181;-71
2023/02/02 18:34:43;;;;;;;1.65;1.20;;;7.60;99.90;;;;;;5035106;28;20632;-73
2023/02/02 18:37:09;;;;;;;0.80;0.80;;;7.60;99.90;;;;;;5019652;28;20210;-71
2023/02/02 18:39:35;;;;;;;1.67;1.57;;;7.60;99.90;;;;;;5015724;28;20185;-73